sensor_id;sensor_type;location;lat;lon;timestamp;temperature;humidity
67196;DHT22;54122;53.538;49.366;2022-07-29T00:01:35;17.70;85.30
67196;DHT22;54122;53.538;49.366;2022-07-29T00:04:01;17.80;85.00
67196;DHT22;54122;53.538;49.366;2022-07-29T00:06:28;17.70;85.10
67196;DHT22;54122;53.538;49.366;2022-07-29T00:08:54;17.70;85.10
67196;DHT22;54122;53.538;49.366;2022-07-29T00:11:21;17.70;85.10
67196;DHT22;54122;53.538;49.366;2022-07-29T00:13:47;17.60;85.20
67196;DHT22;54122;53.538;49.366;2022-07-29T00:16:13;17.60;85.30
67196;DHT22;54122;53.538;49.366;2022-07-29T00:18:39;17.60;85.40
67196;DHT22;54122;53.538;49.366;2022-07-29T00:21:06;17.50;85.60
67196;DHT22;54122;53.538;49.366;2022-07-29T00:23:32;17.50;85.60
67196;DHT22;54122;53.538;49.366;2022-07-29T00:25:58;17.40;86.20
67196;DHT22;54122;53.538;49.366;2022-07-29T00:28:24;17.40;86.70
67196;DHT22;54122;53.538;49.366;2022-07-29T00:30:51;17.30;86.90
67196;DHT22;54122;53.538;49.366;2022-07-29T00:33:17;17.20;87.10
67196;DHT22;54122;53.538;49.366;2022-07-29T00:35:43;17.20;86.90
67196;DHT22;54122;53.538;49.366;2022-07-29T00:38:19;17.10;86.90
67196;DHT22;54122;53.538;49.366;2022-07-29T00:40:46;17.10;87.20
67196;DHT22;54122;53.538;49.366;2022-07-29T00:43:13;17.00;87.70
67196;DHT22;54122;53.538;49.366;2022-07-29T00:45:41;17.00;88.00
67196;DHT22;54122;53.538;49.366;2022-07-29T00:48:07;17.00;87.80
67196;DHT22;54122;53.538;49.366;2022-07-29T00:50:35;16.90;87.80
67196;DHT22;54122;53.538;49.366;2022-07-29T00:53:03;16.80;88.00
67196;DHT22;54122;53.538;49.366;2022-07-29T00:55:29;16.80;88.00
67196;DHT22;54122;53.538;49.366;2022-07-29T00:57:57;16.80;88.30
67196;DHT22;54122;53.538;49.366;2022-07-29T01:00:26;16.80;88.20
67196;DHT22;54122;53.538;49.366;2022-07-29T01:02:53;16.80;88.30
67196;DHT22;54122;53.538;49.366;2022-07-29T01:05:24;16.80;88.10
67196;DHT22;54122;53.538;49.366;2022-07-29T01:07:53;16.80;88.20
67196;DHT22;54122;53.538;49.366;2022-07-29T01:10:21;16.80;87.80
67196;DHT22;54122;53.538;49.366;2022-07-29T01:12:50;16.80;87.80
67196;DHT22;54122;53.538;49.366;2022-07-29T01:15:16;16.80;88.00
67196;DHT22;54122;53.538;49.366;2022-07-29T01:20:25;16.90;88.00
67196;DHT22;54122;53.538;49.366;2022-07-29T01:23:17;17.00;87.40
67196;DHT22;54122;53.538;49.366;2022-07-29T01:26:35;17.00;87.80
67196;DHT22;54122;53.538;49.366;2022-07-29T01:28:49;17.10;87.30
67196;DHT22;54122;53.538;49.366;2022-07-29T01:31:22;17.20;87.10
67196;DHT22;54122;53.538;49.366;2022-07-29T01:33:57;17.20;86.90
67196;DHT22;54122;53.538;49.366;2022-07-29T01:36:43;17.30;86.40
67196;DHT22;54122;53.538;49.366;2022-07-29T01:39:22;17.40;85.80
67196;DHT22;54122;53.538;49.366;2022-07-29T01:42:15;17.50;85.00
67196;DHT22;54122;53.538;49.366;2022-07-29T01:44:48;17.60;84.50
67196;DHT22;54122;53.538;49.366;2022-07-29T01:47:20;17.80;83.80
67196;DHT22;54122;53.538;49.366;2022-07-29T01:49:50;18.10;82.80
67196;DHT22;54122;53.538;49.366;2022-07-29T01:52:33;18.30;81.40
67196;DHT22;54122;53.538;49.366;2022-07-29T01:55:07;18.70;80.10
67196;DHT22;54122;53.538;49.366;2022-07-29T01:57:36;19.00;78.80
67196;DHT22;54122;53.538;49.366;2022-07-29T02:00:04;19.30;77.40
67196;DHT22;54122;53.538;49.366;2022-07-29T02:02:32;19.40;76.70
67196;DHT22;54122;53.538;49.366;2022-07-29T02:05:02;19.60;77.00
67196;DHT22;54122;53.538;49.366;2022-07-29T02:07:31;19.80;74.70
67196;DHT22;54122;53.538;49.366;2022-07-29T02:10:00;20.40;73.30
67196;DHT22;54122;53.538;49.366;2022-07-29T02:12:28;21.20;70.60
67196;DHT22;54122;53.538;49.366;2022-07-29T02:14:58;22.20;66.90
67196;DHT22;54122;53.538;49.366;2022-07-29T02:17:29;23.00;63.40
67196;DHT22;54122;53.538;49.366;2022-07-29T02:19:59;23.60;61.20
67196;DHT22;54122;53.538;49.366;2022-07-29T02:22:29;23.40;60.20
67196;DHT22;54122;53.538;49.366;2022-07-29T02:24:57;23.20;61.00
67196;DHT22;54122;53.538;49.366;2022-07-29T02:27:25;23.60;60.40
67196;DHT22;54122;53.538;49.366;2022-07-29T02:29:53;23.60;59.40
67196;DHT22;54122;53.538;49.366;2022-07-29T02:32:21;23.40;60.20
67196;DHT22;54122;53.538;49.366;2022-07-29T02:34:49;23.50;60.60
67196;DHT22;54122;53.538;49.366;2022-07-29T02:37:17;24.00;59.60
67196;DHT22;54122;53.538;49.366;2022-07-29T02:39:44;25.00;57.20
67196;DHT22;54122;53.538;49.366;2022-07-29T02:42:15;26.10;53.60
67196;DHT22;54122;53.538;49.366;2022-07-29T02:44:42;27.10;49.70
67196;DHT22;54122;53.538;49.366;2022-07-29T02:47:42;28.00;47.60
67196;DHT22;54122;53.538;49.366;2022-07-29T02:50:21;28.70;45.20
67196;DHT22;54122;53.538;49.366;2022-07-29T02:53:14;29.30;43.50
67196;DHT22;54122;53.538;49.366;2022-07-29T02:55:53;30.10;41.10
67196;DHT22;54122;53.538;49.366;2022-07-29T02:58:30;30.70;40.10
67196;DHT22;54122;53.538;49.366;2022-07-29T03:01:01;31.30;38.10
67196;DHT22;54122;53.538;49.366;2022-07-29T03:03:32;31.80;36.60
67196;DHT22;54122;53.538;49.366;2022-07-29T03:06:01;32.30;34.70
67196;DHT22;54122;53.538;49.366;2022-07-29T03:08:28;32.50;33.50
67196;DHT22;54122;53.538;49.366;2022-07-29T03:10:55;32.40;32.90
67196;DHT22;54122;53.538;49.366;2022-07-29T03:13:22;32.40;33.20
67196;DHT22;54122;53.538;49.366;2022-07-29T03:15:49;32.60;33.60
67196;DHT22;54122;53.538;49.366;2022-07-29T03:18:15;32.50;32.60
67196;DHT22;54122;53.538;49.366;2022-07-29T03:20:42;33.00;32.40
67196;DHT22;54122;53.538;49.366;2022-07-29T03:23:08;33.80;30.40
67196;DHT22;54122;53.538;49.366;2022-07-29T03:25:35;34.40;29.20
67196;DHT22;54122;53.538;49.366;2022-07-29T03:28:01;33.70;29.50
67196;DHT22;54122;53.538;49.366;2022-07-29T03:30:28;33.10;29.50
67196;DHT22;54122;53.538;49.366;2022-07-29T03:32:56;32.70;30.00
67196;DHT22;54122;53.538;49.366;2022-07-29T03:35:23;31.80;31.60
67196;DHT22;54122;53.538;49.366;2022-07-29T03:37:49;30.70;33.10
67196;DHT22;54122;53.538;49.366;2022-07-29T03:40:31;29.90;35.00
67196;DHT22;54122;53.538;49.366;2022-07-29T03:42:59;29.40;36.90
67196;DHT22;54122;53.538;49.366;2022-07-29T03:45:26;28.90;37.40
67196;DHT22;54122;53.538;49.366;2022-07-29T03:47:58;29.10;36.80
67196;DHT22;54122;53.538;49.366;2022-07-29T03:50:25;29.20;35.70
67196;DHT22;54122;53.538;49.366;2022-07-29T03:52:51;28.90;36.50
67196;DHT22;54122;53.538;49.366;2022-07-29T03:55:18;29.10;37.60
67196;DHT22;54122;53.538;49.366;2022-07-29T03:57:45;29.50;35.60
67196;DHT22;54122;53.538;49.366;2022-07-29T04:00:13;30.90;34.10
67196;DHT22;54122;53.538;49.366;2022-07-29T04:02:41;32.40;32.80
67196;DHT22;54122;53.538;49.366;2022-07-29T04:05:14;33.60;31.00
67196;DHT22;54122;53.538;49.366;2022-07-29T04:07:43;33.80;28.90
67196;DHT22;54122;53.538;49.366;2022-07-29T04:10:10;33.70;29.40
67196;DHT22;54122;53.538;49.366;2022-07-29T04:12:36;33.70;29.40
67196;DHT22;54122;53.538;49.366;2022-07-29T04:15:04;34.30;28.90
67196;DHT22;54122;53.538;49.366;2022-07-29T04:17:30;34.70;28.00
67196;DHT22;54122;53.538;49.366;2022-07-29T04:19:57;35.10;27.10
67196;DHT22;54122;53.538;49.366;2022-07-29T04:22:23;35.40;26.40
67196;DHT22;54122;53.538;49.366;2022-07-29T04:24:49;35.50;26.30
67196;DHT22;54122;53.538;49.366;2022-07-29T04:27:15;35.50;26.50
67196;DHT22;54122;53.538;49.366;2022-07-29T04:29:42;36.10;25.70
67196;DHT22;54122;53.538;49.366;2022-07-29T04:32:08;36.10;25.50
67196;DHT22;54122;53.538;49.366;2022-07-29T04:34:35;36.00;26.20
67196;DHT22;54122;53.538;49.366;2022-07-29T04:37:01;36.00;25.10
67196;DHT22;54122;53.538;49.366;2022-07-29T04:39:29;35.60;25.30
67196;DHT22;54122;53.538;49.366;2022-07-29T04:41:55;35.60;25.50
67196;DHT22;54122;53.538;49.366;2022-07-29T04:44:21;35.80;25.40
67196;DHT22;54122;53.538;49.366;2022-07-29T04:46:48;36.10;25.00
67196;DHT22;54122;53.538;49.366;2022-07-29T04:49:15;36.30;25.00
67196;DHT22;54122;53.538;49.366;2022-07-29T04:51:41;36.70;25.50
67196;DHT22;54122;53.538;49.366;2022-07-29T04:54:08;36.50;24.10
67196;DHT22;54122;53.538;49.366;2022-07-29T04:56:34;36.00;24.20
67196;DHT22;54122;53.538;49.366;2022-07-29T04:59:00;35.70;24.40
67196;DHT22;54122;53.538;49.366;2022-07-29T05:01:27;35.80;25.10
67196;DHT22;54122;53.538;49.366;2022-07-29T05:03:53;36.50;24.10
67196;DHT22;54122;53.538;49.366;2022-07-29T05:06:19;37.50;23.60
67196;DHT22;54122;53.538;49.366;2022-07-29T05:08:45;38.30;22.60
67196;DHT22;54122;53.538;49.366;2022-07-29T05:11:12;37.90;22.50
67196;DHT22;54122;53.538;49.366;2022-07-29T05:13:38;37.10;23.50
67196;DHT22;54122;53.538;49.366;2022-07-29T05:16:06;36.80;24.00
67196;DHT22;54122;53.538;49.366;2022-07-29T05:18:34;37.30;22.80
67196;DHT22;54122;53.538;49.366;2022-07-29T05:21:01;37.30;23.00
67196;DHT22;54122;53.538;49.366;2022-07-29T05:23:27;36.90;22.50
67196;DHT22;54122;53.538;49.366;2022-07-29T05:25:53;36.40;24.10
67196;DHT22;54122;53.538;49.366;2022-07-29T05:28:19;36.20;24.00
67196;DHT22;54122;53.538;49.366;2022-07-29T05:30:47;35.90;24.10
67196;DHT22;54122;53.538;49.366;2022-07-29T05:33:14;35.70;24.40
67196;DHT22;54122;53.538;49.366;2022-07-29T05:35:40;35.70;24.30
67196;DHT22;54122;53.538;49.366;2022-07-29T05:38:06;35.40;24.40
67196;DHT22;54122;53.538;49.366;2022-07-29T05:40:33;34.60;25.00
67196;DHT22;54122;53.538;49.366;2022-07-29T05:43:00;34.30;25.30
67196;DHT22;54122;53.538;49.366;2022-07-29T05:45:26;34.10;25.40
67196;DHT22;54122;53.538;49.366;2022-07-29T05:47:53;33.70;26.10
67196;DHT22;54122;53.538;49.366;2022-07-29T05:50:19;33.80;26.30
67196;DHT22;54122;53.538;49.366;2022-07-29T05:52:45;34.00;25.80
67196;DHT22;54122;53.538;49.366;2022-07-29T05:55:12;34.00;25.80
67196;DHT22;54122;53.538;49.366;2022-07-29T05:57:38;34.30;25.80
67196;DHT22;54122;53.538;49.366;2022-07-29T06:00:05;34.50;25.40
67196;DHT22;54122;53.538;49.366;2022-07-29T06:02:31;35.00;25.10
67196;DHT22;54122;53.538;49.366;2022-07-29T06:04:57;35.90;24.40
67196;DHT22;54122;53.538;49.366;2022-07-29T06:07:24;36.50;23.20
67196;DHT22;54122;53.538;49.366;2022-07-29T06:09:50;37.10;22.80
67196;DHT22;54122;53.538;49.366;2022-07-29T06:12:17;37.70;22.20
67196;DHT22;54122;53.538;49.366;2022-07-29T06:14:43;38.30;21.50
67196;DHT22;54122;53.538;49.366;2022-07-29T06:17:09;38.20;20.90
67196;DHT22;54122;53.538;49.366;2022-07-29T06:19:37;37.80;21.30
67196;DHT22;54122;53.538;49.366;2022-07-29T06:22:04;37.30;21.40
67196;DHT22;54122;53.538;49.366;2022-07-29T06:24:30;37.10;22.00
67196;DHT22;54122;53.538;49.366;2022-07-29T06:26:56;37.10;22.30
67196;DHT22;54122;53.538;49.366;2022-07-29T06:29:22;37.70;21.20
67196;DHT22;54122;53.538;49.366;2022-07-29T06:31:49;37.90;20.80
67196;DHT22;54122;53.538;49.366;2022-07-29T06:34:15;37.70;20.90
67196;DHT22;54122;53.538;49.366;2022-07-29T06:36:42;37.50;21.70
67196;DHT22;54122;53.538;49.366;2022-07-29T06:39:08;37.40;21.80
67196;DHT22;54122;53.538;49.366;2022-07-29T06:41:35;37.60;21.70
67196;DHT22;54122;53.538;49.366;2022-07-29T06:44:01;37.90;21.30
67196;DHT22;54122;53.538;49.366;2022-07-29T06:46:27;37.90;21.10
67196;DHT22;54122;53.538;49.366;2022-07-29T06:48:54;38.00;21.20
67196;DHT22;54122;53.538;49.366;2022-07-29T06:51:22;37.90;21.20
67196;DHT22;54122;53.538;49.366;2022-07-29T06:53:50;37.70;20.90
67196;DHT22;54122;53.538;49.366;2022-07-29T06:56:17;37.30;21.10
67196;DHT22;54122;53.538;49.366;2022-07-29T06:58:43;37.00;22.00
67196;DHT22;54122;53.538;49.366;2022-07-29T07:01:10;36.90;22.80
67196;DHT22;54122;53.538;49.366;2022-07-29T07:03:37;37.30;21.10
67196;DHT22;54122;53.538;49.366;2022-07-29T07:06:06;37.60;21.10
67196;DHT22;54122;53.538;49.366;2022-07-29T07:08:39;37.70;19.90
67196;DHT22;54122;53.538;49.366;2022-07-29T07:11:05;37.40;20.30
67196;DHT22;54122;53.538;49.366;2022-07-29T07:13:33;37.40;21.10
67196;DHT22;54122;53.538;49.366;2022-07-29T07:16:01;37.50;20.80
67196;DHT22;54122;53.538;49.366;2022-07-29T07:18:28;37.20;21.00
67196;DHT22;54122;53.538;49.366;2022-07-29T07:20:55;37.40;21.00
67196;DHT22;54122;53.538;49.366;2022-07-29T07:23:22;37.60;20.40
67196;DHT22;54122;53.538;49.366;2022-07-29T07:25:48;37.40;20.20
67196;DHT22;54122;53.538;49.366;2022-07-29T07:28:15;37.20;20.70
67196;DHT22;54122;53.538;49.366;2022-07-29T07:30:41;37.00;21.50
67196;DHT22;54122;53.538;49.366;2022-07-29T07:33:07;36.90;22.60
67196;DHT22;54122;53.538;49.366;2022-07-29T07:35:33;36.80;21.80
67196;DHT22;54122;53.538;49.366;2022-07-29T07:38:00;36.30;22.20
67196;DHT22;54122;53.538;49.366;2022-07-29T07:40:26;36.20;22.20
67196;DHT22;54122;53.538;49.366;2022-07-29T07:42:52;36.40;22.00
67196;DHT22;54122;53.538;49.366;2022-07-29T07:45:19;36.70;21.50
67196;DHT22;54122;53.538;49.366;2022-07-29T07:47:45;36.70;21.00
67196;DHT22;54122;53.538;49.366;2022-07-29T07:50:12;36.50;21.50
67196;DHT22;54122;53.538;49.366;2022-07-29T07:52:51;36.50;22.00
67196;DHT22;54122;53.538;49.366;2022-07-29T07:55:18;36.50;21.50
67196;DHT22;54122;53.538;49.366;2022-07-29T07:57:45;36.80;20.70
67196;DHT22;54122;53.538;49.366;2022-07-29T08:00:13;37.00;21.10
67196;DHT22;54122;53.538;49.366;2022-07-29T08:02:40;37.30;21.10
67196;DHT22;54122;53.538;49.366;2022-07-29T08:05:09;37.50;20.40
67196;DHT22;54122;53.538;49.366;2022-07-29T08:07:36;37.40;20.30
67196;DHT22;54122;53.538;49.366;2022-07-29T08:10:02;37.30;20.90
67196;DHT22;54122;53.538;49.366;2022-07-29T08:12:29;37.30;20.80
67196;DHT22;54122;53.538;49.366;2022-07-29T08:14:55;37.30;20.60
67196;DHT22;54122;53.538;49.366;2022-07-29T08:17:21;37.40;20.70
67196;DHT22;54122;53.538;49.366;2022-07-29T08:19:48;37.00;21.40
67196;DHT22;54122;53.538;49.366;2022-07-29T08:22:14;36.70;22.10
67196;DHT22;54122;53.538;49.366;2022-07-29T08:24:41;36.50;21.60
67196;DHT22;54122;53.538;49.366;2022-07-29T08:27:10;36.60;21.50
67196;DHT22;54122;53.538;49.366;2022-07-29T08:29:37;36.80;21.70
67196;DHT22;54122;53.538;49.366;2022-07-29T08:32:04;36.70;21.30
67196;DHT22;54122;53.538;49.366;2022-07-29T08:34:31;36.50;21.30
67196;DHT22;54122;53.538;49.366;2022-07-29T08:36:58;36.10;21.80
67196;DHT22;54122;53.538;49.366;2022-07-29T08:39:24;36.00;21.50
67196;DHT22;54122;53.538;49.366;2022-07-29T08:41:51;36.20;21.60
67196;DHT22;54122;53.538;49.366;2022-07-29T08:44:19;36.10;21.70
67196;DHT22;54122;53.538;49.366;2022-07-29T08:46:45;36.00;21.60
67196;DHT22;54122;53.538;49.366;2022-07-29T08:49:12;35.70;22.60
67196;DHT22;54122;53.538;49.366;2022-07-29T08:51:40;35.20;22.30
67196;DHT22;54122;53.538;49.366;2022-07-29T08:54:08;34.70;23.60
67196;DHT22;54122;53.538;49.366;2022-07-29T08:56:35;34.50;25.20
67196;DHT22;54122;53.538;49.366;2022-07-29T08:59:05;34.40;24.40
67196;DHT22;54122;53.538;49.366;2022-07-29T09:01:37;34.20;25.00
67196;DHT22;54122;53.538;49.366;2022-07-29T09:04:08;34.10;23.90
67196;DHT22;54122;53.538;49.366;2022-07-29T09:06:42;34.30;24.50
67196;DHT22;54122;53.538;49.366;2022-07-29T09:09:09;34.70;23.90
67196;DHT22;54122;53.538;49.366;2022-07-29T09:11:36;34.70;23.80
67196;DHT22;54122;53.538;49.366;2022-07-29T09:14:03;34.80;23.10
67196;DHT22;54122;53.538;49.366;2022-07-29T09:16:47;34.70;23.40
67196;DHT22;54122;53.538;49.366;2022-07-29T09:19:29;34.40;24.00
67196;DHT22;54122;53.538;49.366;2022-07-29T09:21:56;33.70;23.90
67196;DHT22;54122;53.538;49.366;2022-07-29T09:27:00;32.60;25.70
67196;DHT22;54122;53.538;49.366;2022-07-29T09:29:27;32.10;26.30
67196;DHT22;54122;53.538;49.366;2022-07-29T09:31:55;31.60;26.60
67196;DHT22;54122;53.538;49.366;2022-07-29T09:34:24;31.30;27.80
67196;DHT22;54122;53.538;49.366;2022-07-29T09:36:51;31.10;28.50
67196;DHT22;54122;53.538;49.366;2022-07-29T09:39:32;31.00;27.80
67196;DHT22;54122;53.538;49.366;2022-07-29T09:42:02;31.10;28.00
67196;DHT22;54122;53.538;49.366;2022-07-29T09:44:49;31.40;28.40
67196;DHT22;54122;53.538;49.366;2022-07-29T09:47:17;31.60;28.30
67196;DHT22;54122;53.538;49.366;2022-07-29T09:52:24;31.40;28.30
67196;DHT22;54122;53.538;49.366;2022-07-29T09:54:51;31.40;27.50
67196;DHT22;54122;53.538;49.366;2022-07-29T09:57:26;31.40;27.80
67196;DHT22;54122;53.538;49.366;2022-07-29T10:00:08;31.50;28.20
67196;DHT22;54122;53.538;49.366;2022-07-29T10:02:38;31.20;28.00
67196;DHT22;54122;53.538;49.366;2022-07-29T10:05:16;31.00;27.20
67196;DHT22;54122;53.538;49.366;2022-07-29T10:07:52;30.80;27.70
67196;DHT22;54122;53.538;49.366;2022-07-29T10:10:30;30.70;28.00
67196;DHT22;54122;53.538;49.366;2022-07-29T10:12:58;30.80;27.90
67196;DHT22;54122;53.538;49.366;2022-07-29T10:15:27;30.80;28.40
67196;DHT22;54122;53.538;49.366;2022-07-29T10:17:55;30.90;29.20
67196;DHT22;54122;53.538;49.366;2022-07-29T10:20:22;30.90;28.80
67196;DHT22;54122;53.538;49.366;2022-07-29T10:22:50;30.90;28.60
67196;DHT22;54122;53.538;49.366;2022-07-29T10:25:18;31.00;28.70
67196;DHT22;54122;53.538;49.366;2022-07-29T10:27:46;31.00;28.50
67196;DHT22;54122;53.538;49.366;2022-07-29T10:30:15;31.00;29.20
67196;DHT22;54122;53.538;49.366;2022-07-29T10:35:44;31.00;28.10
67196;DHT22;54122;53.538;49.366;2022-07-29T10:44:09;30.90;27.10
67196;DHT22;54122;53.538;49.366;2022-07-29T10:46:40;30.70;28.30
67196;DHT22;54122;53.538;49.366;2022-07-29T10:57:29;30.30;28.20
67196;DHT22;54122;53.538;49.366;2022-07-29T11:05:10;30.20;27.70
67196;DHT22;54122;53.538;49.366;2022-07-29T11:07:39;30.10;27.60
67196;DHT22;54122;53.538;49.366;2022-07-29T11:15:10;30.60;27.90
67196;DHT22;54122;53.538;49.366;2022-07-29T11:31:31;31.00;26.60
67196;DHT22;54122;53.538;49.366;2022-07-29T11:34:27;31.00;27.00
67196;DHT22;54122;53.538;49.366;2022-07-29T11:44:58;31.00;26.50
67196;DHT22;54122;53.538;49.366;2022-07-29T11:47:26;31.00;26.50
67196;DHT22;54122;53.538;49.366;2022-07-29T11:49:56;30.90;26.20
67196;DHT22;54122;53.538;49.366;2022-07-29T11:55:11;30.90;27.40
67196;DHT22;54122;53.538;49.366;2022-07-29T11:57:49;30.80;28.20
67196;DHT22;54122;53.538;49.366;2022-07-29T12:00:40;30.70;28.60
67196;DHT22;54122;53.538;49.366;2022-07-29T12:03:09;30.50;30.00
67196;DHT22;54122;53.538;49.366;2022-07-29T12:05:44;30.40;28.80
67196;DHT22;54122;53.538;49.366;2022-07-29T12:08:17;30.40;28.80
67196;DHT22;54122;53.538;49.366;2022-07-29T12:10:46;30.50;29.30
67196;DHT22;54122;53.538;49.366;2022-07-29T12:13:15;30.60;28.70
67196;DHT22;54122;53.538;49.366;2022-07-29T12:15:42;30.60;28.20
67196;DHT22;54122;53.538;49.366;2022-07-29T12:18:19;30.60;28.30
67196;DHT22;54122;53.538;49.366;2022-07-29T12:20:47;30.40;28.60
67196;DHT22;54122;53.538;49.366;2022-07-29T12:23:14;30.20;29.40
67196;DHT22;54122;53.538;49.366;2022-07-29T12:25:43;29.90;30.00
67196;DHT22;54122;53.538;49.366;2022-07-29T12:28:13;29.70;29.80
67196;DHT22;54122;53.538;49.366;2022-07-29T12:30:47;29.40;30.40
67196;DHT22;54122;53.538;49.366;2022-07-29T12:33:15;29.30;30.20
67196;DHT22;54122;53.538;49.366;2022-07-29T12:35:53;29.40;31.30
67196;DHT22;54122;53.538;49.366;2022-07-29T12:38:20;29.50;30.60
67196;DHT22;54122;53.538;49.366;2022-07-29T12:40:48;29.60;30.70
67196;DHT22;54122;53.538;49.366;2022-07-29T12:43:18;29.70;30.70
67196;DHT22;54122;53.538;49.366;2022-07-29T12:45:54;29.70;30.10
67196;DHT22;54122;53.538;49.366;2022-07-29T12:48:37;29.70;30.10
67196;DHT22;54122;53.538;49.366;2022-07-29T12:51:06;29.70;30.40
67196;DHT22;54122;53.538;49.366;2022-07-29T12:53:37;29.70;30.60
67196;DHT22;54122;53.538;49.366;2022-07-29T12:56:05;29.70;30.90
67196;DHT22;54122;53.538;49.366;2022-07-29T12:58:36;29.60;30.60
67196;DHT22;54122;53.538;49.366;2022-07-29T13:01:12;29.70;30.40
67196;DHT22;54122;53.538;49.366;2022-07-29T13:03:55;29.80;29.60
67196;DHT22;54122;53.538;49.366;2022-07-29T13:06:39;29.80;30.00
67196;DHT22;54122;53.538;49.366;2022-07-29T13:11:39;29.80;29.50
67196;DHT22;54122;53.538;49.366;2022-07-29T13:14:11;29.80;29.60
67196;DHT22;54122;53.538;49.366;2022-07-29T13:17:16;29.80;29.60
67196;DHT22;54122;53.538;49.366;2022-07-29T13:19:48;29.80;29.80
67196;DHT22;54122;53.538;49.366;2022-07-29T13:22:20;29.80;28.80
67196;DHT22;54122;53.538;49.366;2022-07-29T13:24:53;29.70;28.80
67196;DHT22;54122;53.538;49.366;2022-07-29T13:27:22;29.70;29.50
67196;DHT22;54122;53.538;49.366;2022-07-29T13:29:49;29.70;29.10
67196;DHT22;54122;53.538;49.366;2022-07-29T13:32:19;29.70;28.30
67196;DHT22;54122;53.538;49.366;2022-07-29T13:34:45;29.60;28.00
67196;DHT22;54122;53.538;49.366;2022-07-29T13:37:12;29.60;28.70
67196;DHT22;54122;53.538;49.366;2022-07-29T13:39:38;29.50;29.00
67196;DHT22;54122;53.538;49.366;2022-07-29T13:42:07;29.50;28.70
67196;DHT22;54122;53.538;49.366;2022-07-29T13:44:35;29.50;29.00
67196;DHT22;54122;53.538;49.366;2022-07-29T13:47:01;29.40;28.80
67196;DHT22;54122;53.538;49.366;2022-07-29T13:49:27;29.40;28.90
67196;DHT22;54122;53.538;49.366;2022-07-29T13:51:54;29.40;28.80
67196;DHT22;54122;53.538;49.366;2022-07-29T13:54:20;29.30;29.40
67196;DHT22;54122;53.538;49.366;2022-07-29T13:56:46;29.10;29.90
67196;DHT22;54122;53.538;49.366;2022-07-29T13:59:13;28.90;31.20
67196;DHT22;54122;53.538;49.366;2022-07-29T14:01:39;28.70;34.10
67196;DHT22;54122;53.538;49.366;2022-07-29T14:04:09;28.70;35.40
67196;DHT22;54122;53.538;49.366;2022-07-29T14:06:36;28.60;37.30
67196;DHT22;54122;53.538;49.366;2022-07-29T14:09:03;28.50;38.90
67196;DHT22;54122;53.538;49.366;2022-07-29T14:11:32;28.40;39.00
67196;DHT22;54122;53.538;49.366;2022-07-29T14:14:00;28.40;38.40
67196;DHT22;54122;53.538;49.366;2022-07-29T14:16:27;28.40;38.30
67196;DHT22;54122;53.538;49.366;2022-07-29T14:18:54;28.30;38.30
67196;DHT22;54122;53.538;49.366;2022-07-29T14:21:23;28.30;39.60
67196;DHT22;54122;53.538;49.366;2022-07-29T14:23:49;28.30;39.60
67196;DHT22;54122;53.538;49.366;2022-07-29T14:26:15;28.30;37.60
67196;DHT22;54122;53.538;49.366;2022-07-29T14:28:42;28.30;36.60
67196;DHT22;54122;53.538;49.366;2022-07-29T14:31:09;28.30;35.90
67196;DHT22;54122;53.538;49.366;2022-07-29T14:33:36;28.40;35.50
67196;DHT22;54122;53.538;49.366;2022-07-29T14:36:03;28.40;35.50
67196;DHT22;54122;53.538;49.366;2022-07-29T14:38:29;28.40;34.90
67196;DHT22;54122;53.538;49.366;2022-07-29T14:40:57;28.40;34.60
67196;DHT22;54122;53.538;49.366;2022-07-29T14:43:23;28.50;35.20
67196;DHT22;54122;53.538;49.366;2022-07-29T14:45:50;28.50;36.10
67196;DHT22;54122;53.538;49.366;2022-07-29T14:48:17;28.50;35.90
67196;DHT22;54122;53.538;49.366;2022-07-29T14:50:43;28.50;35.60
67196;DHT22;54122;53.538;49.366;2022-07-29T14:53:10;28.40;36.00
67196;DHT22;54122;53.538;49.366;2022-07-29T14:55:38;28.30;36.80
67196;DHT22;54122;53.538;49.366;2022-07-29T14:58:05;28.20;39.10
67196;DHT22;54122;53.538;49.366;2022-07-29T15:00:32;28.10;39.30
67196;DHT22;54122;53.538;49.366;2022-07-29T15:03:00;28.00;39.50
67196;DHT22;54122;53.538;49.366;2022-07-29T15:05:26;27.90;40.10
67196;DHT22;54122;53.538;49.366;2022-07-29T15:07:54;27.80;40.20
67196;DHT22;54122;53.538;49.366;2022-07-29T15:10:20;27.80;39.40
67196;DHT22;54122;53.538;49.366;2022-07-29T15:12:46;27.70;39.30
67196;DHT22;54122;53.538;49.366;2022-07-29T15:15:13;27.70;39.30
67196;DHT22;54122;53.538;49.366;2022-07-29T15:17:41;27.60;39.90
67196;DHT22;54122;53.538;49.366;2022-07-29T15:20:09;27.50;40.40
67196;DHT22;54122;53.538;49.366;2022-07-29T15:22:36;27.50;40.90
67196;DHT22;54122;53.538;49.366;2022-07-29T15:25:05;27.50;40.90
67196;DHT22;54122;53.538;49.366;2022-07-29T15:27:31;27.40;41.30
67196;DHT22;54122;53.538;49.366;2022-07-29T15:29:57;27.30;41.20
67196;DHT22;54122;53.538;49.366;2022-07-29T15:32:24;27.10;41.60
67196;DHT22;54122;53.538;49.366;2022-07-29T15:34:50;27.00;41.80
67196;DHT22;54122;53.538;49.366;2022-07-29T15:37:16;26.90;42.00
67196;DHT22;54122;53.538;49.366;2022-07-29T15:39:42;26.90;42.40
67196;DHT22;54122;53.538;49.366;2022-07-29T15:42:09;26.80;42.20
67196;DHT22;54122;53.538;49.366;2022-07-29T15:44:35;26.60;41.90
67196;DHT22;54122;53.538;49.366;2022-07-29T15:47:01;26.50;42.20
67196;DHT22;54122;53.538;49.366;2022-07-29T15:49:36;26.40;42.30
67196;DHT22;54122;53.538;49.366;2022-07-29T15:52:05;26.40;42.90
67196;DHT22;54122;53.538;49.366;2022-07-29T15:54:37;26.30;43.10
67196;DHT22;54122;53.538;49.366;2022-07-29T15:57:04;26.10;42.80
67196;DHT22;54122;53.538;49.366;2022-07-29T15:59:31;26.00;43.10
67196;DHT22;54122;53.538;49.366;2022-07-29T16:01:58;26.00;44.50
67196;DHT22;54122;53.538;49.366;2022-07-29T16:04:26;25.90;46.30
67196;DHT22;54122;53.538;49.366;2022-07-29T16:06:52;25.70;47.70
67196;DHT22;54122;53.538;49.366;2022-07-29T16:09:19;25.50;49.50
67196;DHT22;54122;53.538;49.366;2022-07-29T16:11:46;25.20;51.30
67196;DHT22;54122;53.538;49.366;2022-07-29T16:14:16;25.00;52.40
67196;DHT22;54122;53.538;49.366;2022-07-29T16:16:43;24.70;53.10
67196;DHT22;54122;53.538;49.366;2022-07-29T16:19:09;24.40;53.50
67196;DHT22;54122;53.538;49.366;2022-07-29T16:21:36;24.20;54.30
67196;DHT22;54122;53.538;49.366;2022-07-29T16:24:05;23.90;55.40
67196;DHT22;54122;53.538;49.366;2022-07-29T16:26:32;23.80;56.50
67196;DHT22;54122;53.538;49.366;2022-07-29T16:28:59;23.60;56.80